createdAt,value
2019-05-15T00:01:08.512Z,8.39
2019-05-15T00:03:39.156Z,8.37
2019-05-15T00:06:08.437Z,8.35
2019-05-15T00:08:38.725Z,8.34
2019-05-15T00:11:08.421Z,8.33
2019-05-15T00:13:39.002Z,8.28
2019-05-15T00:16:08.475Z,8.24
2019-05-15T00:18:39.025Z,8.19
2019-05-15T00:21:09.261Z,8.15
2019-05-15T00:23:38.747Z,8.09
2019-05-15T00:26:09.226Z,8.03
2019-05-15T00:28:38.851Z,7.97
2019-05-15T00:31:09.052Z,7.94
2019-05-15T00:33:39.342Z,7.91
2019-05-15T00:36:08.728Z,7.88
2019-05-15T00:38:39.006Z,7.84
2019-05-15T00:41:09.433Z,7.80
2019-05-15T00:43:38.718Z,7.76
2019-05-15T00:46:09.132Z,7.73
2019-05-15T00:48:39.950Z,7.69
2019-05-15T00:51:08.460Z,7.62
2019-05-15T00:53:39.025Z,7.58
2019-05-15T00:56:08.947Z,7.55
2019-05-15T00:58:39.924Z,7.51
2019-05-15T01:01:08.418Z,7.46
2019-05-15T01:03:38.777Z,7.43
2019-05-15T01:06:08.347Z,7.40
2019-05-15T01:08:39.050Z,7.36
2019-05-15T01:11:09.059Z,7.29
2019-05-15T01:13:38.914Z,7.22
2019-05-15T01:16:09.198Z,7.18
2019-05-15T01:18:38.588Z,7.10
2019-05-15T01:21:08.352Z,7.06
2019-05-15T01:23:39.136Z,7.00
2019-05-15T01:26:08.340Z,6.95
2019-05-15T01:28:38.466Z,6.91
2019-05-15T01:31:08.577Z,6.86
2019-05-15T01:33:39.008Z,6.80
2019-05-15T01:36:08.461Z,6.76
2019-05-15T01:38:38.892Z,6.71
2019-05-15T01:41:09.733Z,6.65
2019-05-15T01:43:38.260Z,6.58
2019-05-15T01:46:08.356Z,6.53
2019-05-15T01:48:38.728Z,6.48
2019-05-15T01:51:09.316Z,6.44
2019-05-15T01:53:38.614Z,6.38
2019-05-15T01:56:08.441Z,6.34
2019-05-15T01:58:38.273Z,6.31
2019-05-15T02:01:08.195Z,6.26
2019-05-15T02:03:38.500Z,6.23
2019-05-15T02:06:08.220Z,6.22
2019-05-15T02:08:39.329Z,6.21
2019-05-15T02:11:09.203Z,6.21
2019-05-15T02:13:38.867Z,6.21
2019-05-15T02:16:08.374Z,6.20
2019-05-15T02:18:39.164Z,6.18
2019-05-15T02:21:10.167Z,6.22
2019-05-15T02:23:38.762Z,6.22
2019-05-15T02:26:07.968Z,6.23
2019-05-15T02:28:38.410Z,6.22
2019-05-15T02:31:10.215Z,6.17
2019-05-15T02:33:39.902Z,6.18
2019-05-15T02:36:09.706Z,6.18
2019-05-15T02:38:40.926Z,6.20
2019-05-15T02:41:09.890Z,6.19
2019-05-15T02:43:39.282Z,6.21
2019-05-15T02:46:10.143Z,6.22
2019-05-15T02:48:40.937Z,6.22
2019-05-15T02:51:09.743Z,6.22
2019-05-15T02:53:39.851Z,6.22
2019-05-15T02:56:09.500Z,6.21
2019-05-15T02:58:39.762Z,6.20
2019-05-15T03:01:09.428Z,6.19
2019-05-15T03:03:39.002Z,6.16
2019-05-15T03:06:09.924Z,6.15
2019-05-15T03:08:39.823Z,6.14
2019-05-15T03:11:09.735Z,6.11
2019-05-15T03:13:39.340Z,6.10
2019-05-15T03:16:10.041Z,6.09
2019-05-15T03:18:39.788Z,6.06
2019-05-15T03:21:09.594Z,6.05
2019-05-15T03:23:40.477Z,6.03
2019-05-15T03:26:09.169Z,6.02
2019-05-15T03:28:39.139Z,5.99
2019-05-15T03:31:26.426Z,5.98
2019-05-15T03:33:45.123Z,5.97
2019-05-15T03:36:13.590Z,5.93
2019-05-15T03:38:39.700Z,5.92
2019-05-15T03:41:10.237Z,5.91
2019-05-15T03:43:39.558Z,5.87
2019-05-15T03:46:09.018Z,5.84
2019-05-15T03:48:40.244Z,5.81
2019-05-15T03:51:09.198Z,5.80
2019-05-15T03:53:40.026Z,5.79
2019-05-15T03:56:09.749Z,5.77
2019-05-15T03:58:40.000Z,5.76
2019-05-15T04:01:27.702Z,5.75
2019-05-15T04:03:39.368Z,5.74
2019-05-15T04:06:10.169Z,5.74
2019-05-15T04:08:39.280Z,5.73
2019-05-15T04:11:09.090Z,5.73
2019-05-15T04:13:39.528Z,5.72
2019-05-15T04:16:10.396Z,5.72
2019-05-15T04:18:39.727Z,5.71
2019-05-15T04:21:09.154Z,5.71
2019-05-15T04:23:39.342Z,5.72
2019-05-15T04:26:09.357Z,5.74
2019-05-15T04:28:41.835Z,5.77
2019-05-15T04:31:10.705Z,5.82
2019-05-15T04:33:40.175Z,5.87
2019-05-15T04:36:09.748Z,5.91
2019-05-15T04:38:39.398Z,5.96
2019-05-15T04:41:09.531Z,6.01
2019-05-15T04:43:44.445Z,6.06
2019-05-15T04:46:10.060Z,6.11
2019-05-15T04:48:39.777Z,6.16
2019-05-15T04:51:09.789Z,6.22
2019-05-15T04:53:39.701Z,6.27
2019-05-15T04:56:09.456Z,6.32
2019-05-15T04:58:39.437Z,6.39
2019-05-15T05:01:09.534Z,6.44
2019-05-15T05:03:39.401Z,6.51
2019-05-15T05:06:09.811Z,6.57
2019-05-15T05:08:39.708Z,6.62
2019-05-15T05:11:09.711Z,6.70
2019-05-15T05:13:39.230Z,6.88
2019-05-15T05:16:09.599Z,7.60
2019-05-15T05:18:41.471Z,8.63
2019-05-15T05:21:08.735Z,9.71
2019-05-15T05:23:37.780Z,10.73
2019-05-15T05:26:08.813Z,11.66
2019-05-15T05:28:37.933Z,12.52
2019-05-15T05:31:08.375Z,13.30
2019-05-15T05:33:38.163Z,13.97
2019-05-15T05:43:30.014Z,15.21
2019-05-15T05:45:58.581Z,15.70
2019-05-15T05:48:29.252Z,16.17
2019-05-15T05:50:58.438Z,16.68
2019-05-15T05:53:28.715Z,17.05
2019-05-15T05:55:58.045Z,17.45
2019-05-15T05:58:29.495Z,17.80
2019-05-15T06:00:58.645Z,18.08
2019-05-15T06:03:28.051Z,18.36
2019-05-15T06:05:59.081Z,18.47
2019-05-15T06:08:28.238Z,18.61
2019-05-15T06:10:58.509Z,18.62
2019-05-15T06:13:29.081Z,18.43
2019-05-15T06:15:59.051Z,18.42
2019-05-15T06:18:28.233Z,18.44
2019-05-15T06:20:58.676Z,18.79
2019-05-15T06:23:33.806Z,19.05
2019-05-15T06:25:59.287Z,19.18
2019-05-15T06:28:28.968Z,19.36
2019-05-15T06:31:00.822Z,19.38
2019-05-15T06:33:28.034Z,19.26
2019-05-15T06:35:59.064Z,19.16
2019-05-15T06:38:30.787Z,19.08
2019-05-15T06:40:58.284Z,18.89
2019-05-15T06:43:28.057Z,19.05
2019-05-15T06:45:58.416Z,19.23
2019-05-15T06:48:28.870Z,19.67
2019-05-15T06:50:58.047Z,19.88
2019-05-15T06:53:28.864Z,19.93
2019-05-15T06:55:58.475Z,19.85
2019-05-15T06:58:28.967Z,19.73
2019-05-15T07:00:59.223Z,19.64
2019-05-15T07:03:29.320Z,19.56
2019-05-15T07:05:59.767Z,19.57
2019-05-15T07:08:28.826Z,19.78
2019-05-15T07:10:57.958Z,20.00
2019-05-15T07:13:28.846Z,20.05
2019-05-15T07:15:58.542Z,19.79
2019-05-15T07:18:28.351Z,19.68
2019-05-15T07:20:58.045Z,19.59
2019-05-15T07:23:30.354Z,19.48
2019-05-15T07:25:58.732Z,19.34
2019-05-15T07:28:28.823Z,19.40
2019-05-15T07:30:58.398Z,19.49
2019-05-15T07:33:38.718Z,19.57
2019-05-15T07:35:59.053Z,19.62
2019-05-15T07:38:28.250Z,19.88
2019-05-15T07:41:01.106Z,20.13
2019-05-15T07:43:28.063Z,20.59
2019-05-15T07:45:59.055Z,20.87
2019-05-15T07:48:29.087Z,21.25
2019-05-15T07:50:59.442Z,21.27
2019-05-15T07:53:28.872Z,21.10
2019-05-15T07:56:01.282Z,21.12
2019-05-15T07:58:27.896Z,20.95
2019-05-15T08:00:59.004Z,20.95
2019-05-15T08:03:29.167Z,21.00
2019-05-15T08:06:02.129Z,20.96
2019-05-15T08:08:28.998Z,21.00
2019-05-15T08:10:57.932Z,20.83
2019-05-15T08:13:28.775Z,20.63
2019-05-15T08:15:58.037Z,20.59
2019-05-15T08:18:28.584Z,20.83
2019-05-15T08:20:58.570Z,20.70
2019-05-15T08:23:28.399Z,20.56
2019-05-15T08:25:57.997Z,20.76
2019-05-15T08:28:28.731Z,21.08
2019-05-15T08:30:58.407Z,21.46
2019-05-15T08:33:28.058Z,21.41
2019-05-15T08:35:58.805Z,21.32
2019-05-15T08:38:28.838Z,21.31
2019-05-15T08:40:59.200Z,21.51
2019-05-15T08:43:29.105Z,21.61
2019-05-15T08:45:58.663Z,21.64
2019-05-15T08:48:27.795Z,21.65
2019-05-15T08:50:57.931Z,21.53
2019-05-15T08:53:28.537Z,21.52
2019-05-15T08:55:58.790Z,21.38
2019-05-15T08:58:29.038Z,21.20
2019-05-15T09:00:58.725Z,20.83
2019-05-15T09:03:28.651Z,20.85
2019-05-15T09:05:59.033Z,20.93
2019-05-15T09:08:29.337Z,20.53
2019-05-15T09:10:58.806Z,20.37
2019-05-15T09:13:29.236Z,20.46
2019-05-15T09:15:58.941Z,20.30
2019-05-15T09:18:28.397Z,20.41
2019-05-15T09:20:59.391Z,20.59
2019-05-15T09:23:28.906Z,20.38
2019-05-15T09:25:57.974Z,20.35
2019-05-15T09:28:29.319Z,20.24
2019-05-15T09:30:59.144Z,20.07
2019-05-15T09:33:28.565Z,20.09
2019-05-15T09:35:58.302Z,20.12
2019-05-15T09:38:28.940Z,20.28
2019-05-15T09:40:58.568Z,20.33
2019-05-15T09:43:28.551Z,20.59
2019-05-15T09:45:58.305Z,20.90
2019-05-15T09:48:28.697Z,20.80
2019-05-15T09:50:58.712Z,20.90
2019-05-15T09:53:28.560Z,20.92
2019-05-15T09:55:59.736Z,21.23
2019-05-15T09:58:30.040Z,21.56
2019-05-15T10:00:57.984Z,21.35
2019-05-15T10:03:28.251Z,21.20
2019-05-15T10:05:56.936Z,21.22
2019-05-15T10:08:25.384Z,21.29
2019-05-15T10:10:53.898Z,21.08
2019-05-15T10:13:22.414Z,21.04
2019-05-15T10:15:51.379Z,21.09
2019-05-15T10:18:19.947Z,21.12
2019-05-15T10:20:49.027Z,20.99
2019-05-15T10:23:19.630Z,21.00
2019-05-15T10:25:48.517Z,20.68
2019-05-15T10:28:19.052Z,20.89
2019-05-15T10:30:49.619Z,20.85
2019-05-15T10:33:19.743Z,20.87
2019-05-15T10:35:49.187Z,21.07
2019-05-15T10:38:19.360Z,21.07
2019-05-15T10:40:59.940Z,21.32
2019-05-15T10:43:20.561Z,21.44
2019-05-15T10:45:49.986Z,21.48
2019-05-15T10:48:19.215Z,21.47
2019-05-15T10:50:47.863Z,21.31
2019-05-15T10:53:18.720Z,21.32
2019-05-15T10:55:49.616Z,21.08
2019-05-15T10:58:21.744Z,20.91
2019-05-15T11:00:49.400Z,20.89
2019-05-15T11:03:20.017Z,21.07
2019-05-15T11:05:49.278Z,21.24
2019-05-15T11:08:18.837Z,21.40
2019-05-15T11:10:49.355Z,21.26
2019-05-15T11:13:18.816Z,21.29
2019-05-15T11:15:49.191Z,21.24
2019-05-15T11:18:18.048Z,21.31
2019-05-15T11:20:48.797Z,21.33
2019-05-15T11:23:19.543Z,21.48
2019-05-15T11:25:48.763Z,21.54
2019-05-15T11:28:17.852Z,21.50
2019-05-15T11:30:49.095Z,21.51
2019-05-15T11:33:18.868Z,21.78
2019-05-15T11:35:58.076Z,21.76
2019-05-15T11:38:19.485Z,21.75
2019-05-15T11:40:47.846Z,21.80
2019-05-15T11:43:19.353Z,21.79
2019-05-15T11:45:48.191Z,21.74
2019-05-15T11:48:20.150Z,21.76
2019-05-15T11:50:47.285Z,21.57
2019-05-15T11:53:15.871Z,21.39
2019-05-15T11:55:44.454Z,21.41
2019-05-15T11:58:12.924Z,21.50
2019-05-15T12:00:41.510Z,21.59
2019-05-15T12:03:10.054Z,21.61
2019-05-15T12:05:38.908Z,21.27
2019-05-15T12:08:09.031Z,21.00
2019-05-15T12:10:38.915Z,20.78
2019-05-15T12:13:09.828Z,20.79
2019-05-15T12:15:38.875Z,20.92
2019-05-15T12:18:08.910Z,21.21
2019-05-15T12:20:39.010Z,21.15
2019-05-15T12:23:09.132Z,21.24
2019-05-15T12:25:39.479Z,21.41
2019-05-15T12:28:09.664Z,21.56
2019-05-15T12:30:40.284Z,21.53
2019-05-15T12:33:09.774Z,21.43
2019-05-15T12:38:09.953Z,21.32
2019-05-15T13:00:41.554Z,21.02
2019-05-15T13:03:10.253Z,21.14
2019-05-15T13:05:39.376Z,21.33
2019-05-15T13:08:08.537Z,21.50
2019-05-15T13:10:38.566Z,21.53
2019-05-15T13:13:09.481Z,21.57
2019-05-15T13:15:40.983Z,21.61
2019-05-15T13:18:13.965Z,21.65
2019-05-15T13:20:38.720Z,21.58
2019-05-15T13:23:08.495Z,21.39
2019-05-15T13:25:39.506Z,21.48
2019-05-15T13:28:08.853Z,21.54
2019-05-15T13:30:41.240Z,21.39
2019-05-15T13:33:09.797Z,21.25
2019-05-15T13:35:38.380Z,21.13
2019-05-15T13:38:09.527Z,21.05
2019-05-15T13:40:41.757Z,20.95
2019-05-15T13:43:08.363Z,20.99
2019-05-15T13:45:38.784Z,20.89
2019-05-15T13:48:08.955Z,20.99
2019-05-15T13:50:40.475Z,21.10
2019-05-15T13:53:10.434Z,21.07
2019-05-15T13:55:42.380Z,21.05
2019-05-15T13:58:09.124Z,21.12
2019-05-15T14:00:38.974Z,20.87
2019-05-15T14:03:09.234Z,20.75
2019-05-15T14:05:38.700Z,20.48
2019-05-15T14:08:07.697Z,20.09
2019-05-15T14:10:38.493Z,19.68
2019-05-15T14:13:06.574Z,19.69
2019-05-15T14:15:38.037Z,19.78
2019-05-15T14:18:05.837Z,19.82
2019-05-15T14:20:34.356Z,19.77
2019-05-15T14:23:02.909Z,19.91
2019-05-15T14:25:31.495Z,20.02
2019-05-15T14:28:00.012Z,19.72
2019-05-15T14:30:29.267Z,19.64
2019-05-15T14:32:59.846Z,19.66
2019-05-15T14:35:28.379Z,19.61
2019-05-15T14:38:05.863Z,19.56
2019-05-15T14:40:27.807Z,19.57
2019-05-15T14:42:59.203Z,19.44
2019-05-15T14:45:28.010Z,19.34
2019-05-15T14:47:58.178Z,19.29
2019-05-15T14:50:28.355Z,19.35
2019-05-15T14:52:58.560Z,19.35
2019-05-15T14:55:33.373Z,19.26
2019-05-15T14:57:58.797Z,18.95
2019-05-15T15:00:33.341Z,18.71
2019-05-15T15:02:58.881Z,18.53
2019-05-15T15:05:27.747Z,18.28
2019-05-15T15:07:58.568Z,18.06
2019-05-15T15:10:28.916Z,18.03
2019-05-15T15:12:58.631Z,18.00
2019-05-15T15:15:28.680Z,17.92
2019-05-15T15:17:58.448Z,17.92
2019-05-15T15:20:28.551Z,17.96
2019-05-15T15:22:58.752Z,18.02
2019-05-15T15:25:27.491Z,18.07
2019-05-15T15:27:58.472Z,18.10
2019-05-15T15:30:26.400Z,18.10
2019-05-15T15:32:54.981Z,18.06
2019-05-15T15:35:23.565Z,18.11
2019-05-15T15:37:52.156Z,18.16
2019-05-15T15:40:20.916Z,18.04
2019-05-15T15:42:49.504Z,17.86
2019-05-15T15:45:19.284Z,17.72
2019-05-15T15:47:48.174Z,17.54
2019-05-15T15:50:18.301Z,17.30
2019-05-15T15:52:48.877Z,17.15
2019-05-15T15:55:18.436Z,17.01
2019-05-15T15:57:48.706Z,16.87
2019-05-15T16:00:18.377Z,16.72
2019-05-15T16:02:48.423Z,16.61
2019-05-15T16:05:19.104Z,16.58
2019-05-15T16:07:48.508Z,16.53
2019-05-15T16:10:18.982Z,16.54
2019-05-15T16:12:49.207Z,16.58
2019-05-15T16:15:18.237Z,16.64
2019-05-15T16:17:48.849Z,16.73
2019-05-15T16:20:18.903Z,16.82
2019-05-15T16:22:48.594Z,16.87
2019-05-15T16:25:18.440Z,16.90
2019-05-15T16:27:48.803Z,16.93
2019-05-15T16:30:18.882Z,17.05
2019-05-15T16:32:47.416Z,17.20
2019-05-15T16:35:18.283Z,17.32
2019-05-15T16:37:49.005Z,17.27
2019-05-15T16:40:18.370Z,17.08
2019-05-15T16:42:48.857Z,16.94
2019-05-15T16:45:18.375Z,16.71
2019-05-15T16:47:48.020Z,16.58
2019-05-15T16:50:18.123Z,16.50
2019-05-15T16:52:48.994Z,16.50
2019-05-15T16:55:17.678Z,16.47
2019-05-15T16:57:47.942Z,16.46
2019-05-15T17:00:18.617Z,16.40
2019-05-15T17:02:48.233Z,16.33
2019-05-15T17:05:18.548Z,16.25
2019-05-15T17:07:48.834Z,16.15
2019-05-15T17:10:18.028Z,16.05
2019-05-15T17:12:49.071Z,15.96
2019-05-15T17:15:17.473Z,15.86
2019-05-15T17:17:48.598Z,15.73
2019-05-15T17:20:18.101Z,15.61
2019-05-15T17:22:48.363Z,15.49
2019-05-15T17:25:18.440Z,15.40
2019-05-15T17:27:47.657Z,15.29
2019-05-15T17:30:18.318Z,15.24
2019-05-15T17:32:49.416Z,15.19
2019-05-15T17:35:18.991Z,15.17
2019-05-15T17:37:49.160Z,15.16
2019-05-15T17:40:19.015Z,15.16
2019-05-15T17:42:49.359Z,15.15
2019-05-15T17:48:41.678Z,15.14
2019-05-15T17:51:12.025Z,15.10
2019-05-15T17:53:43.361Z,15.06
2019-05-15T17:56:14.506Z,15.00
2019-05-15T17:58:45.055Z,14.91
2019-05-15T18:01:13.817Z,14.81
2019-05-15T18:03:42.563Z,14.71
2019-05-15T18:06:11.316Z,14.61
2019-05-15T18:08:40.268Z,14.50
2019-05-15T18:11:08.963Z,14.42
2019-05-15T18:13:38.300Z,14.35
2019-05-15T18:16:13.273Z,14.28
2019-05-15T18:18:40.025Z,14.20
2019-05-15T18:21:10.669Z,14.13
2019-05-15T18:23:41.866Z,14.10
2019-05-15T18:26:12.539Z,14.05
2019-05-15T18:28:43.786Z,14.00
2019-05-15T18:31:15.152Z,13.94
2019-05-15T18:33:53.496Z,13.87
2019-05-15T18:36:17.103Z,13.82
2019-05-15T18:38:48.264Z,13.73
2019-05-15T18:41:19.999Z,13.62
2019-05-15T18:43:51.380Z,13.55
2019-05-15T18:47:18.638Z,13.45
2019-05-15T18:50:03.737Z,13.36
2019-05-15T18:52:21.784Z,13.23
2019-05-15T18:54:53.710Z,13.16
2019-05-15T18:57:24.870Z,13.08
2019-05-15T18:59:58.035Z,13.03
2019-05-15T19:02:31.126Z,12.98
2019-05-15T19:05:01.786Z,12.92
2019-05-15T19:07:35.315Z,12.88
2019-05-15T19:10:08.441Z,12.83
2019-05-15T19:12:40.208Z,12.78
2019-05-15T19:15:11.819Z,12.73
2019-05-15T19:17:43.158Z,12.67
2019-05-15T19:20:14.627Z,12.58
2019-05-15T19:22:48.249Z,12.48
2019-05-15T19:25:18.436Z,12.40
2019-05-15T19:28:42.658Z,12.31
2019-05-15T19:31:25.913Z,12.23
2019-05-15T19:33:46.839Z,12.08
2019-05-15T19:36:18.289Z,12.00
2019-05-15T19:38:50.130Z,11.94
2019-05-15T19:41:21.055Z,11.89
2019-05-15T19:43:51.981Z,11.80
2019-05-15T19:46:23.200Z,11.72
2019-05-15T19:49:48.377Z,11.63
2019-05-15T19:52:20.020Z,11.57
2019-05-15T19:54:51.538Z,11.50
2019-05-15T19:57:23.187Z,11.45
2019-05-15T19:59:54.163Z,11.44
2019-05-15T20:02:28.438Z,11.42
2019-05-15T20:04:58.733Z,11.37
2019-05-15T20:07:29.081Z,11.29
2019-05-15T20:10:53.274Z,11.24
2019-05-15T20:13:23.679Z,11.25
2019-05-15T20:15:53.408Z,11.23
2019-05-15T20:18:22.566Z,11.20
2019-05-15T20:20:52.629Z,11.18
2019-05-15T20:23:21.910Z,11.18
2019-05-15T20:25:50.677Z,11.20
2019-05-15T20:28:19.291Z,11.22
2019-05-15T20:30:48.587Z,11.22
2019-05-15T20:33:18.206Z,11.21
2019-05-15T20:35:47.981Z,11.19
2019-05-15T20:38:17.618Z,11.21
2019-05-15T20:40:48.595Z,11.23
2019-05-15T20:43:18.539Z,11.23
2019-05-15T20:45:48.474Z,11.26
2019-05-15T20:48:18.816Z,11.33
2019-05-15T20:50:49.084Z,11.40
2019-05-15T20:53:18.641Z,11.49
2019-05-15T20:55:48.564Z,11.57
2019-05-15T20:58:19.421Z,11.64
2019-05-15T21:00:49.621Z,11.70
2019-05-15T21:03:19.343Z,11.74
2019-05-15T21:05:48.808Z,11.73
2019-05-15T21:08:18.252Z,11.68
2019-05-15T21:10:49.231Z,11.63
2019-05-15T21:13:17.413Z,11.58
2019-05-15T21:15:48.322Z,11.49
2019-05-15T21:18:16.992Z,11.39
2019-05-15T21:20:48.332Z,11.28
2019-05-15T21:23:18.259Z,11.16
2019-05-15T21:25:48.422Z,11.02
2019-05-15T21:28:17.483Z,10.87
2019-05-15T21:30:45.932Z,10.75
2019-05-15T21:33:14.382Z,10.64
2019-05-15T21:35:42.980Z,10.56
2019-05-15T21:38:11.680Z,10.53
2019-05-15T21:40:40.194Z,10.49
2019-05-15T21:43:08.935Z,10.47
2019-05-15T21:45:37.687Z,10.43
2019-05-15T21:48:09.007Z,10.38
2019-05-15T21:50:38.801Z,10.31
2019-05-15T21:53:07.551Z,10.27
2019-05-15T21:55:36.231Z,10.20
2019-05-15T21:58:04.840Z,10.11
2019-05-15T22:00:38.197Z,10.03
2019-05-15T22:03:07.293Z,9.95
2019-05-15T22:05:37.976Z,9.86
2019-05-15T22:08:07.840Z,9.78
2019-05-15T22:10:38.834Z,9.72
2019-05-15T22:13:07.561Z,9.67
2019-05-15T22:15:36.141Z,9.60
2019-05-15T22:18:05.221Z,9.52
2019-05-15T22:20:33.928Z,9.44
2019-05-15T22:23:02.558Z,9.38
2019-05-15T22:25:31.136Z,9.33
2019-05-15T22:27:59.892Z,9.25
2019-05-15T22:30:30.345Z,9.17
2019-05-15T22:32:58.950Z,9.09
2019-05-15T22:35:29.557Z,9.03
2019-05-15T22:37:58.569Z,9.00
2019-05-15T22:40:28.937Z,8.98
2019-05-15T22:42:59.109Z,8.97
2019-05-15T22:45:28.507Z,8.97
2019-05-15T22:47:58.552Z,8.96
2019-05-15T22:50:28.081Z,8.96
2019-05-15T22:52:58.785Z,9.00
2019-05-15T22:55:28.904Z,9.06
2019-05-15T22:57:58.624Z,9.15
2019-05-15T23:00:28.992Z,9.25
2019-05-15T23:02:58.189Z,9.35
2019-05-15T23:05:31.396Z,9.46
2019-05-15T23:07:58.860Z,9.57
2019-05-15T23:10:29.146Z,9.69
2019-05-15T23:12:58.265Z,9.77
2019-05-15T23:15:28.226Z,9.84
2019-05-15T23:17:58.344Z,9.93
2019-05-15T23:20:28.634Z,10.02
2019-05-15T23:22:58.508Z,10.11
2019-05-15T23:25:29.015Z,10.19
2019-05-15T23:27:58.170Z,10.27
2019-05-15T23:30:28.866Z,10.33
2019-05-15T23:32:58.064Z,10.37
2019-05-15T23:35:35.472Z,10.37
2019-05-15T23:37:58.094Z,10.38
2019-05-15T23:40:28.775Z,10.40
2019-05-15T23:42:57.167Z,10.43
2019-05-15T23:45:25.797Z,10.47
2019-05-15T23:47:54.570Z,10.51
2019-05-15T23:50:23.093Z,10.53
2019-05-15T23:52:51.721Z,10.54
2019-05-15T23:55:20.234Z,10.55
2019-05-15T23:57:48.783Z,10.56
